Terminal Aerodrome Forecast
Issued by NWS Lake Charles, LA

Home | Current Version | Previous Version | Text Only | Print | Product List | Glossary On
Versions: 1 2 3 4 5 6 7 8 9 10 11 12 13
000
FTUS44 KLCH 032349
TAFLFT
TAF
KLFT 032349Z 0400/0424 10008G15KT P6SM -RA BKN040 OVC050
      TEMPO 0403/0406 2SM SHRA BR OVC008
     FM040600 09008KT 4SM -SHRA BR OVC008
     FM041200 36006KT 2SM -RA BR OVC007
     FM041800 36009KT 4SM BR OVC007=

USA.gov is the U.S. government's official web portal to all federal, state and local government web resources and services.